Time;durP1;ratioP1;P1;durP2;ratioP2;P2;SDS_P1;SDS_P2;PMS_P1;PMS_P2;Temp;Humidity;BMP_temperature;BMP_pressure;BME280_temperature;BME280_humidity;BME280_pressure;Samples;Min_cycle;Max_cycle;Signal;HPM_P1;HPM_P2
2021/10/15 00:00:19;;;;;;;20.77;4.30;;;;;;;13.02;89.91;101803.75;5093376;28;20023;-79
2021/10/15 00:02:44;;;;;;;22.67;4.10;;;;;;;12.99;90.60;101802.19;5092579;28;20036;-80
2021/10/15 00:05:09;;;;;;;19.38;4.43;;;;;;;12.97;90.58;101785.47;5093372;28;20028;-77
2021/10/15 00:07:35;;;;;;;18.50;4.40;;;;;;;12.95;91.01;101791.91;5092791;28;20372;-78
2021/10/15 00:10:00;;;;;;;17.48;4.20;;;;;;;12.96;90.68;101788.25;5093154;28;20032;-79
2021/10/15 00:12:26;;;;;;;16.23;4.15;;;;;;;12.96;90.08;101775.75;5093312;28;20019;-79
2021/10/15 00:14:52;;;;;;;27.40;5.18;;;;;;;12.95;90.53;101781.22;5092465;28;20036;-79
2021/10/15 00:17:18;;;;;;;16.40;4.45;;;;;;;12.97;90.18;101782.78;5093295;28;20064;-78
2021/10/15 00:19:44;;;;;;;12.68;4.07;;;;;;;13.01;89.86;101778.84;5092581;28;20369;-78
2021/10/15 00:22:09;;;;;;;14.48;4.28;;;;;;;13.04;89.68;101783.94;5093310;28;20103;-80
2021/10/15 00:24:35;;;;;;;15.95;4.00;;;;;;;13.04;89.94;101773.25;5093358;28;20460;-78
2021/10/15 00:27:00;;;;;;;15.55;4.07;;;;;;;13.01;90.15;101770.84;5092692;28;20048;-80
2021/10/15 00:29:26;;;;;;;16.20;4.00;;;;;;;12.99;89.83;101770.13;5093122;28;20096;-78
2021/10/15 00:31:51;;;;;;;15.25;4.07;;;;;;;13.01;89.70;101759.31;5092246;28;20028;-79
2021/10/15 00:34:16;;;;;;;14.57;3.80;;;;;;;13.00;90.26;101758.47;5092969;28;20111;-80
2021/10/15 00:36:42;;;;;;;19.58;4.00;;;;;;;12.96;89.92;101756.22;5092405;28;20035;-80
2021/10/15 00:39:07;;;;;;;20.75;4.10;;;;;;;12.92;90.33;101757.44;5092859;28;20022;-79
2021/10/15 00:41:32;;;;;;;17.05;3.78;;;;;;;12.96;90.06;101750.88;5074851;28;20529;-80
2021/10/15 00:43:58;;;;;;;17.05;3.75;;;;;;;12.95;90.75;101746.50;5092203;28;20364;-78
2021/10/15 00:46:23;;;;;;;11.60;3.47;;;;;;;12.95;90.32;101754.50;5092693;28;20039;-79
2021/10/15 00:48:49;;;;;;;21.80;4.47;;;;;;;12.96;90.07;101750.88;5092216;28;20020;-80
2021/10/15 00:51:14;;;;;;;17.65;3.95;;;;;;;12.99;90.20;101754.09;5074562;28;20468;-79
2021/10/15 00:53:39;;;;;;;16.88;4.25;;;;;;;13.01;90.47;101751.31;5091778;28;20355;-79
2021/10/15 00:56:05;;;;;;;17.70;3.92;;;;;;;12.97;90.63;101737.38;5074696;28;20077;-82
2021/10/15 00:58:30;;;;;;;17.80;3.97;;;;;;;12.97;90.67;101740.06;5092335;28;20025;-81
2021/10/15 01:00:56;;;;;;;20.00;3.95;;;;;;;12.98;89.79;101732.88;5091735;28;20471;-80
2021/10/15 01:03:21;;;;;;;16.50;3.83;;;;;;;12.98;88.47;101732.88;5092286;28;20483;-80
2021/10/15 01:05:47;;;;;;;10.25;3.25;;;;;;;13.06;86.57;101730.38;5095496;28;20023;-79
2021/10/15 01:08:12;;;;;;;16.63;3.80;;;;;;;13.09;85.82;101723.91;5096860;28;20024;-79
2021/10/15 01:10:38;;;;;;;8.27;2.97;;;;;;;13.14;84.71;101721.69;5096948;28;20031;-79
2021/10/15 01:13:03;;;;;;;18.92;3.60;;;;;;;13.21;84.04;101712.16;5096064;28;20064;-76
2021/10/15 01:15:29;;;;;;;12.27;3.60;;;;;;;13.26;83.23;101723.28;5096565;28;20047;-79
2021/10/15 01:17:54;;;;;;;8.63;2.78;;;;;;;13.29;83.05;101712.31;5096040;28;20359;-85
2021/10/15 01:20:19;;;;;;;13.43;3.80;;;;;;;13.34;82.35;101714.63;5078803;28;20427;-79
2021/10/15 01:22:45;;;;;;;12.52;3.40;;;;;;;13.39;82.33;101705.22;5096016;28;20027;-81
2021/10/15 01:25:10;;;;;;;9.90;3.00;;;;;;;13.42;82.20;101712.13;5096644;28;20028;-79
2021/10/15 01:27:36;;;;;;;13.90;3.50;;;;;;;13.43;81.75;101707.63;5096470;28;20048;-79
2021/10/15 01:30:01;;;;;;;17.25;3.30;;;;;;;13.43;81.75;101699.59;5077939;28;20109;-79
2021/10/15 01:32:27;;;;;;;13.90;3.63;;;;;;;13.47;81.82;101701.03;5096321;28;20039;-79
2021/10/15 01:34:52;;;;;;;13.60;3.65;;;;;;;13.47;81.80;101699.19;5077645;28;20513;-79
2021/10/15 01:37:17;;;;;;;12.05;3.22;;;;;;;13.47;81.96;101699.19;5096208;28;20363;-80
2021/10/15 01:39:43;;;;;;;11.80;3.33;;;;;;;13.42;82.42;101693.41;5095822;28;20074;-78
2021/10/15 01:42:53;;;;;;;12.43;3.17;;;;;;;13.42;81.96;101684.53;5096055;28;20119;-80
2021/10/15 01:44:54;;;;;;;10.52;3.53;;;;;;;13.47;80.61;101687.66;5095117;28;20048;-79
2021/10/15 01:47:19;;;;;;;12.43;3.00;;;;;;;13.44;81.69;101685.25;5096186;28;20046;-78
2021/10/15 01:49:44;;;;;;;8.30;2.95;;;;;;;13.43;81.99;101686.22;5095243;28;20105;-79
2021/10/15 01:52:10;;;;;;;15.23;3.20;;;;;;;13.43;82.35;101680.88;5096031;28;20048;-77
2021/10/15 01:54:35;;;;;;;19.65;3.50;;;;;;;13.45;81.66;101677.09;5096013;28;20031;-81
2021/10/15 01:57:00;;;;;;;12.55;3.08;;;;;;;13.49;81.56;101674.97;5095608;28;20421;-79
2021/10/15 01:59:27;;;;;;;25.15;4.32;;;;;;;13.48;82.13;101670.63;5095551;28;20085;-80
2021/10/15 02:01:53;;;;;;;14.63;3.65;;;;;;;13.48;82.02;101663.47;5095050;28;20123;-80
2021/10/15 02:04:18;;;;;;;11.52;3.25;;;;;;;13.49;82.20;101666.97;5095866;28;20108;-80
2021/10/15 02:06:43;;;;;;;15.27;3.53;;;;;;;13.48;82.35;101657.25;5095731;28;20054;-79
2021/10/15 02:11:53;;;;;;;8.88;3.20;;;;;;;13.48;81.70;101660.78;5094778;28;20039;-79
2021/10/15 02:14:18;;;;;;;11.95;3.05;;;;;;;13.50;81.46;101650.78;5095508;28;20024;-78
2021/10/15 02:16:43;;;;;;;16.20;3.47;;;;;;;13.52;81.07;101650.66;5077241;28;20106;-78
2021/10/15 02:19:09;;;;;;;11.60;3.17;;;;;;;13.55;80.63;101637.00;5094926;28;20349;-79
2021/10/15 02:21:34;;;;;;;15.52;3.65;;;;;;;13.52;80.58;101653.31;5077467;28;20032;-79
2021/10/15 02:23:59;;;;;;;14.07;3.80;;;;;;;13.48;80.69;101644.75;5094754;28;20031;-80
2021/10/15 02:26:25;;;;;;;13.65;3.45;;;;;;;13.47;81.06;101644.88;5095133;28;20023;-79
2021/10/15 02:28:50;;;;;;;12.15;3.15;;;;;;;13.43;80.74;101640.78;5076525;28;20067;-77
2021/10/15 02:31:15;;;;;;;19.80;3.95;;;;;;;13.41;81.35;101638.25;5095038;28;20024;-78
2021/10/15 02:33:41;;;;;;;14.55;4.82;;;;;;;13.40;80.50;101624.06;5095318;28;20032;-80
2021/10/15 02:36:06;;;;;;;16.13;4.05;;;;;;;13.43;80.77;101624.75;5094557;28;20028;-79
2021/10/15 02:38:31;;;;;;;13.98;3.80;;;;;;;13.39;81.60;101627.69;5095066;28;20024;-80
2021/10/15 02:40:57;;;;;;;13.82;3.72;;;;;;;13.37;81.19;101629.66;5094493;28;20520;-80
2021/10/15 02:43:23;;;;;;;15.52;3.40;;;;;;;13.35;81.24;101633.47;5094656;28;20387;-79
2021/10/15 02:45:48;;;;;;;16.73;3.92;;;;;;;13.34;81.20;101629.09;5094899;28;20039;-77
2021/10/15 02:48:13;;;;;;;18.05;3.67;;;;;;;13.38;80.56;101626.00;5094380;28;20035;-79
2021/10/15 02:50:40;;;;;;;16.23;3.10;;;;;;;13.43;80.21;101630.94;5094854;28;20456;-81
2021/10/15 02:53:05;;;;;;;14.02;2.92;;;;;;;13.43;80.34;101630.94;5094293;28;20074;-79
2021/10/15 02:55:30;;;;;;;16.95;3.83;;;;;;;13.44;80.26;101629.97;5094670;28;20478;-80
2021/10/15 02:57:56;;;;;;;16.20;3.28;;;;;;;13.43;80.72;101611.38;5094205;28;20055;-79
2021/10/15 03:00:21;;;;;;;12.35;3.50;;;;;;;13.40;80.84;101610.69;5094817;28;20503;-78
2021/10/15 03:02:47;;;;;;;15.60;4.07;;;;;;;13.40;80.88;101607.16;5094693;28;20029;-78
2021/10/15 03:05:12;;;;;;;10.85;3.67;;;;;;;13.38;80.83;101607.28;5093616;28;20125;-78
2021/10/15 03:07:38;;;;;;;15.48;3.75;;;;;;;13.36;81.23;101606.59;5094249;28;20024;-79
2021/10/15 03:10:05;;;;;;;8.68;3.05;;;;;;;13.34;80.76;101607.72;5093837;28;20020;-78
2021/10/15 03:12:31;;;;;;;11.65;3.20;;;;;;;13.36;80.09;101606.59;5094616;28;20086;-79
2021/10/15 03:14:56;;;;;;;13.73;3.47;;;;;;;13.38;79.08;101611.81;5093776;28;20452;-79
2021/10/15 03:17:22;;;;;;;11.00;3.40;;;;;;;13.40;79.04;101610.69;5094388;28;20444;-79
2021/10/15 03:19:47;;;;;;;17.55;3.72;;;;;;;13.39;78.38;101609.00;5094380;28;20462;-79
2021/10/15 03:22:12;;;;;;;14.00;3.20;;;;;;;13.37;78.92;101600.25;5093734;28;20456;-77
2021/10/15 03:24:38;;;;;;;11.93;3.20;;;;;;;13.33;78.43;101616.66;5094360;28;20469;-77
2021/10/15 03:27:03;;;;;;;15.60;3.10;;;;;;;13.31;79.05;101614.13;5092864;28;20047;-78
2021/10/15 03:29:29;;;;;;;13.43;3.53;;;;;;;13.27;78.83;101606.53;5094119;28;20035;-80
2021/10/15 03:31:54;;;;;;;11.48;3.00;;;;;;;13.23;79.59;101609.50;5093742;28;20036;-78
2021/10/15 03:34:20;;;;;;;8.40;2.83;;;;;;;13.25;79.83;101612.03;5093484;28;20051;-79
2021/10/15 03:36:45;;;;;;;13.15;3.30;;;;;;;13.27;79.77;101606.53;5094332;28;20451;-79
2021/10/15 03:39:11;;;;;;;13.13;3.67;;;;;;;13.26;80.14;101608.38;5093243;28;20035;-79
2021/10/15 03:41:38;;;;;;;15.60;3.45;;;;;;;13.26;79.52;101608.38;5093906;28;20028;-79
2021/10/15 03:44:04;;;;;;;7.85;3.08;;;;;;;13.29;79.48;101613.44;5093169;28;20036;-77
2021/10/15 03:46:29;;;;;;;10.27;3.03;;;;;;;13.30;78.97;101612.47;5093850;28;20115;-76
2021/10/15 03:48:54;;;;;;;10.23;3.17;;;;;;;13.31;78.82;101603.44;5093842;28;20058;-77
2021/10/15 03:51:20;;;;;;;12.68;3.50;;;;;;;13.29;79.06;101610.78;5093031;28;20056;-79
2021/10/15 03:53:45;;;;;;;11.02;3.40;;;;;;;13.28;78.98;101606.41;5093618;28;20056;-79
2021/10/15 03:56:10;;;;;;;17.00;3.17;;;;;;;13.30;78.97;101606.25;5074671;28;20024;-79
2021/10/15 03:58:36;;;;;;;13.73;3.20;;;;;;;13.29;79.81;101589.38;5093608;28;20034;-76
2021/10/15 04:01:01;;;;;;;15.77;3.83;;;;;;;13.28;79.59;101600.22;5092975;28;20452;-79
2021/10/15 04:03:27;;;;;;;11.85;3.70;;;;;;;13.27;79.06;101604.72;5093485;28;20110;-79
2021/10/15 04:05:52;;;;;;;16.10;3.78;;;;;;;13.28;79.00;101606.41;5093398;28;20028;-79
2021/10/15 04:08:17;;;;;;;10.48;3.28;;;;;;;13.28;79.67;101598.38;5074593;28;20250;-77
2021/10/15 04:10:43;;;;;;;13.95;2.95;;;;;;;13.28;79.75;101608.22;5092941;28;20020;-77
2021/10/15 04:13:08;;;;;;;15.00;3.28;;;;;;;13.25;80.34;101603.16;5092439;28;20424;-79
2021/10/15 04:15:34;;;;;;;30.10;4.63;;;;;;;13.21;80.17;101595.44;5093437;28;20493;-76
2021/10/15 04:17:59;;;;;;;22.00;3.85;;;;;;;13.23;80.11;101595.28;5093273;28;20032;-78
2021/10/15 04:20:25;;;;;;;8.98;2.83;;;;;;;13.27;78.78;101596.72;5094114;28;20032;-81
2021/10/15 04:22:50;;;;;;;8.10;2.88;;;;;;;13.24;79.96;101599.63;5093064;28;20020;-77
2021/10/15 04:25:15;;;;;;;14.13;3.28;;;;;;;13.20;80.03;101601.75;5092519;28;20028;-78
2021/10/15 04:27:41;;;;;;;20.45;3.60;;;;;;;13.19;80.47;101593.88;5074682;28;20040;-78
2021/10/15 04:30:07;;;;;;;13.82;3.13;;;;;;;13.15;80.77;101592.44;5092186;28;20473;-79
2021/10/15 04:32:32;;;;;;;19.58;3.40;;;;;;;13.15;80.35;101590.66;5074678;28;20032;-78
2021/10/15 04:34:58;;;;;;;14.95;3.97;;;;;;;13.16;81.14;101591.47;5092924;28;20024;-78
2021/10/15 04:37:23;;;;;;;14.52;3.17;;;;;;;13.17;80.54;101588.66;5092319;28;20028;-80
2021/10/15 04:39:49;;;;;;;16.23;3.63;;;;;;;13.15;80.33;101589.78;5092610;28;20410;-77
2021/10/15 04:42:14;;;;;;;14.30;3.75;;;;;;;13.14;80.87;101591.63;5092257;28;20471;-77
2021/10/15 04:44:39;;;;;;;14.30;3.58;;;;;;;13.14;81.28;101590.78;5092832;28;20431;-79
2021/10/15 04:47:05;;;;;;;11.75;3.65;;;;;;;13.15;81.07;101585.31;5092257;28;20113;-80
2021/10/15 04:49:30;;;;;;;22.25;4.13;;;;;;;13.16;80.67;101600.31;5092559;28;20020;-79
2021/10/15 04:51:56;;;;;;;15.80;3.38;;;;;;;13.16;80.32;101588.81;5092698;28;20024;-79
2021/10/15 04:54:21;;;;;;;15.02;3.42;;;;;;;13.17;80.73;101590.50;5092152;28;20440;-80
2021/10/15 04:56:46;;;;;;;14.15;3.22;;;;;;;13.19;80.85;101580.50;5092425;28;20065;-79
2021/10/15 04:59:12;;;;;;;13.48;3.95;;;;;;;13.18;80.80;101592.16;5091867;28;20024;-80
2021/10/15 05:01:37;;;;;;;15.00;4.00;;;;;;;13.17;80.98;101588.66;5092490;28;20035;-79
2021/10/15 05:04:03;;;;;;;18.80;3.70;;;;;;;13.21;80.55;101589.22;5092181;28;20043;-76
2021/10/15 05:06:28;;;;;;;20.00;4.32;;;;;;;13.19;81.14;101581.34;5091958;28;20111;-77
2021/10/15 05:09:13;;;;;;;14.90;3.45;;;;;;;13.17;80.57;101587.84;5092576;28;20057;-76
2021/10/15 05:11:43;;;;;;;19.13;3.45;;;;;;;13.15;80.62;101585.31;5092713;28;20036;-78
2021/10/15 05:14:08;;;;;;;14.20;3.60;;;;;;;13.13;80.49;101595.25;5091988;28;20023;-78
2021/10/15 05:16:34;;;;;;;15.20;3.22;;;;;;;13.10;81.46;101584.00;5092363;28;20357;-77
2021/10/15 05:18:59;;;;;;;11.00;3.25;;;;;;;13.07;81.35;101590.47;5092519;28;20467;-77
2021/10/15 05:21:25;;;;;;;12.48;3.78;;;;;;;13.05;81.45;101595.13;5091850;28;20031;-80
2021/10/15 05:23:50;;;;;;;10.57;3.40;;;;;;;12.94;85.06;101600.56;5092545;28;20035;-78
2021/10/15 05:26:15;;;;;;;11.63;3.22;;;;;;;12.73;87.44;101608.63;5091969;28;20063;-80
2021/10/15 05:28:41;;;;;;;8.00;2.70;;;;;;;12.41;89.99;101599.78;5092386;28;20376;-80
2021/10/15 05:31:06;;;;;;;11.23;2.90;;;;;;;12.17;91.57;101603.56;5092640;28;20032;-83
2021/10/15 05:33:31;;;;;;;16.23;3.22;;;;;;;11.96;93.09;101606.25;5091404;28;20041;-79
2021/10/15 05:35:57;;;;;;;16.88;3.80;;;;;;;11.83;94.30;101606.38;5092352;28;20107;-79
2021/10/15 05:38:22;;;;;;;12.25;4.07;;;;;;;11.74;95.11;101604.50;5091710;28;20073;-79
2021/10/15 05:40:47;;;;;;;14.48;3.72;;;;;;;11.70;96.17;101602.22;5092133;28;20532;-78
2021/10/15 05:43:13;;;;;;;18.05;4.57;;;;;;;11.68;96.74;101610.34;5091425;28;20024;-79
2021/10/15 05:45:38;;;;;;;14.05;4.20;;;;;;;11.70;97.45;101607.56;5092222;28;20024;-78
2021/10/15 05:48:04;;;;;;;16.13;3.95;;;;;;;11.70;97.62;101616.38;5074247;28;20036;-78
2021/10/15 05:50:31;;;;;;;13.50;4.20;;;;;;;11.69;97.72;101621.84;5092697;28;20024;-79
2021/10/15 05:53:03;;;;;;;15.98;4.30;;;;;;;11.66;97.58;101617.63;5095823;28;20048;-78
2021/10/15 06:00:53;;;;;;;18.40;4.70;;;;;;;11.62;99.64;101646.34;5096055;28;20042;-79
2021/10/15 06:03:23;;;;;;;9.93;3.15;;;;;;;11.55;99.46;101653.16;5094830;28;20395;-81
2021/10/15 06:15:54;;;;;;;7.03;1.38;;;;;;;10.77;99.28;101665.59;5092757;28;20498;-82
2021/10/15 06:18:21;;;;;;;7.45;1.17;;;;;;;10.68;99.67;101666.31;5091896;28;20027;-82
2021/10/15 06:20:48;;;;;;;8.30;1.35;;;;;;;10.62;100.00;101680.09;5074568;28;20055;-81
2021/10/15 06:23:14;;;;;;;4.30;0.88;;;;;;;10.56;100.00;101678.75;5091888;28;20032;-77
2021/10/15 06:25:40;;;;;;;11.30;1.38;;;;;;;10.53;100.00;101687.00;5092300;28;20468;-80
2021/10/15 06:28:08;;;;;;;11.80;1.30;;;;;;;10.49;100.00;101691.69;5074302;28;20055;-81
2021/10/15 06:30:35;;;;;;;3.22;0.90;;;;;;;10.44;100.00;101698.34;5091468;28;20477;-79
2021/10/15 06:33:01;;;;;;;12.00;1.45;;;;;;;10.38;100.00;101704.97;5092182;28;20070;-80
2021/10/15 06:35:26;;;;;;;14.77;1.60;;;;;;;10.33;100.00;101709.75;5091598;28;20024;-80
2021/10/15 06:37:52;;;;;;;10.52;1.40;;;;;;;10.26;100.00;101721.84;5092198;28;20024;-79
2021/10/15 06:40:19;;;;;;;12.43;1.85;;;;;;;10.19;100.00;101740.88;5091468;28;20028;-76
2021/10/15 06:42:46;;;;;;;19.42;2.00;;;;;;;10.12;100.00;101736.16;5074057;28;20486;-78
2021/10/15 06:45:12;;;;;;;18.42;1.60;;;;;;;10.06;100.00;101734.78;5092192;28;20082;-77
2021/10/15 06:47:37;;;;;;;11.48;1.63;;;;;;;10.03;100.00;101742.97;5091344;28;20455;-78
2021/10/15 06:50:03;;;;;;;15.85;1.98;;;;;;;10.00;100.00;101741.44;5091877;28;20028;-82
2021/10/15 06:52:35;;;;;;;14.50;1.83;;;;;;;9.97;100.00;101748.75;5091321;28;20039;-77
2021/10/15 06:55:01;;;;;;;23.33;2.33;;;;;;;9.94;100.00;101749.00;5091968;28;20039;-77
2021/10/15 06:57:26;;;;;;;17.77;2.30;;;;;;;9.92;100.00;101756.25;5091409;28;20028;-76
2021/10/15 06:59:52;;;;;;;12.98;1.50;;;;;;;9.89;100.00;101770.59;5073666;28;20031;-77
2021/10/15 07:02:17;;;;;;;11.05;1.83;;;;;;;9.85;100.00;101769.97;5089720;28;20032;-76
2021/10/15 07:04:42;;;;;;;15.20;2.63;;;;;;;9.81;100.00;101762.34;5073539;28;20043;-77
2021/10/15 07:07:08;;;;;;;13.18;2.13;;;;;;;9.77;100.00;101774.16;5091743;28;20116;-75
2021/10/15 07:09:33;;;;;;;14.13;1.75;;;;;;;9.76;100.00;101775.09;5091130;28;20055;-75
2021/10/15 07:11:58;;;;;;;10.18;1.80;;;;;;;9.72;100.00;101771.84;5091196;28;20031;-77
2021/10/15 07:14:27;;;;;;;13.55;1.90;;;;;;;9.67;100.00;101785.44;5073028;28;20039;-77
2021/10/15 07:16:52;;;;;;;16.50;2.00;;;;;;;9.63;99.81;101788.41;5091573;28;20028;-74
2021/10/15 07:19:18;;;;;;;11.65;2.47;;;;;;;9.63;100.00;101786.63;5091530;28;20038;-78
2021/10/15 07:21:43;;;;;;;12.20;2.00;;;;;;;9.60;100.00;101796.59;5090521;28;20123;-76
2021/10/15 07:24:08;;;;;;;9.50;2.08;;;;;;;9.55;99.79;101791.63;5091010;28;20464;-75
2021/10/15 07:26:37;;;;;;;9.82;1.95;;;;;;;9.55;99.77;101790.78;5090406;28;20468;-77
2021/10/15 07:29:03;;;;;;;10.82;1.77;;;;;;;9.56;100.00;101792.50;5091344;28;20028;-76
2021/10/15 07:31:29;;;;;;;10.40;2.00;;;;;;;9.56;100.00;101803.13;5090234;28;20028;-75
2021/10/15 07:33:54;;;;;;;14.95;2.65;;;;;;;9.58;100.00;101806.50;5091245;28;20111;-82
2021/10/15 07:36:19;;;;;;;17.08;2.03;;;;;;;9.61;100.00;101812.44;5090895;28;20047;-77
2021/10/15 07:38:45;;;;;;;13.95;2.10;;;;;;;9.64;100.00;101819.34;5090653;28;20103;-79
2021/10/15 07:41:10;;;;;;;19.88;2.35;;;;;;;9.64;100.00;101819.34;5091156;28;20039;-74
2021/10/15 07:43:36;;;;;;;13.07;1.90;;;;;;;9.62;100.00;101826.59;5090201;28;20024;-81
2021/10/15 07:46:02;;;;;;;22.95;3.17;;;;;;;9.61;100.00;101832.84;5091075;28;20054;-79
2021/10/15 07:48:28;;;;;;;16.58;2.10;;;;;;;9.61;100.00;101836.34;5071948;28;20413;-77
2021/10/15 07:50:53;;;;;;;12.55;2.15;;;;;;;9.65;100.00;101837.84;5090791;28;20024;-71
2021/10/15 07:53:19;;;;;;;13.27;1.88;;;;;;;9.71;100.00;101842.72;5090665;28;20028;-77
2021/10/15 07:55:45;;;;;;;12.63;1.70;;;;;;;9.78;100.00;101845.81;5089823;28;20036;-77
2021/10/15 07:58:10;;;;;;;15.65;2.17;;;;;;;9.82;100.00;101855.25;5090309;28;20036;-76
2021/10/15 08:00:38;;;;;;;16.38;1.90;;;;;;;9.88;99.58;101851.28;5090368;28;20110;-76
2021/10/15 08:03:04;;;;;;;11.52;1.77;;;;;;;9.94;99.44;101850.00;5090683;28;20066;-78
2021/10/15 08:05:30;;;;;;;12.63;1.90;;;;;;;10.00;98.72;101854.88;5090113;28;20030;-76
2021/10/15 08:07:55;;;;;;;14.98;1.67;;;;;;;10.06;98.35;101865.06;5090362;28;20028;-74
2021/10/15 08:10:21;;;;;;;19.58;2.85;;;;;;;10.13;97.77;101861.00;5090444;28;20481;-74
2021/10/15 08:12:46;;;;;;;9.30;1.67;;;;;;;10.34;98.41;101860.44;5089261;28;20032;-75
2021/10/15 08:15:13;;;;;;;9.45;1.58;;;;;;;10.64;98.34;101865.31;5090461;28;20024;-74
2021/10/15 08:17:39;;;;;;;17.08;2.10;;;;;;;10.93;97.31;101865.78;5089856;28;20066;-74
2021/10/15 08:20:06;;;;;;;15.02;2.08;;;;;;;11.07;95.53;101874.53;5090425;28;20078;-73
2021/10/15 08:22:32;;;;;;;15.20;1.85;;;;;;;11.02;94.24;101877.56;5089734;28;20036;-77
2021/10/15 08:24:57;;;;;;;9.65;1.65;;;;;;;10.92;93.55;101890.69;5090331;28;20376;-76
2021/10/15 08:27:22;;;;;;;11.68;1.42;;;;;;;10.86;93.73;101895.66;5089904;28;20066;-77
2021/10/15 08:29:48;;;;;;;12.77;2.38;;;;;;;10.79;93.63;101897.91;5089701;28;20048;-78
2021/10/15 08:32:13;;;;;;;14.95;2.28;;;;;;;10.73;93.52;101899.25;5089895;28;20044;-78
2021/10/15 08:34:39;;;;;;;13.48;2.00;;;;;;;10.67;92.32;101899.66;5089738;28;20484;-78
2021/10/15 08:37:05;;;;;;;13.80;2.28;;;;;;;10.62;90.34;101901.84;5089914;28;20469;-77
2021/10/15 08:39:31;;;;;;;18.98;2.20;;;;;;;10.66;89.73;101911.31;5089585;28;20047;-76
2021/10/15 08:41:58;;;;;;;15.50;3.45;;;;;;;10.72;88.71;101905.53;5038593;28;20056;-76
2021/10/15 08:44:32;;;;;;;24.70;3.13;;;;;;;10.75;88.49;101912.44;5071943;28;20103;-75
2021/10/15 08:46:57;;;;;;;16.58;2.15;;;;;;;10.73;85.00;101917.00;5090014;28;20448;-77
2021/10/15 08:49:22;;;;;;;9.57;2.00;;;;;;;10.80;88.14;101926.25;5071532;28;20031;-77
2021/10/15 08:51:49;;;;;;;17.45;2.10;;;;;;;10.84;85.81;101917.06;5089563;28;20406;-72
2021/10/15 08:54:15;;;;;;;6.82;1.90;;;;;;;10.88;82.18;101928.31;5089663;28;20042;-77
2021/10/15 08:56:42;;;;;;;13.60;2.10;;;;;;;10.67;82.00;101931.63;5087833;28;20368;-77
2021/10/15 08:59:09;;;;;;;14.35;2.38;;;;;;;10.41;85.11;101939.69;5088851;28;20032;-75
2021/10/15 09:01:45;;;;;;;10.20;1.90;;;;;;;10.84;81.89;101943.69;5091599;28;20032;-74
2021/10/15 09:04:11;;;;;;;10.20;2.00;;;;;;;13.06;75.69;101941.44;5092827;28;20038;-76
2021/10/15 09:06:39;;;;;;;14.18;2.22;;;;;;;15.01;63.40;101945.94;5091539;28;20053;-76
2021/10/15 09:09:05;;;;;;;10.38;1.80;;;;;;;16.31;60.98;101942.63;5074554;28;20027;-76
2021/10/15 09:11:41;;;;;;;12.75;2.10;;;;;;;17.16;55.55;101945.00;5092690;28;20399;-75
2021/10/15 09:14:19;;;;;;;9.25;1.98;;;;;;;18.17;52.47;101955.25;5092544;28;20028;-76
2021/10/15 09:17:08;;;;;;;5.45;1.40;;;;;;;18.99;46.49;101946.53;5092004;28;20043;-76
2021/10/15 09:19:42;;;;;;;7.07;1.60;;;;;;;19.10;44.77;101945.34;5092044;28;20032;-77
2021/10/15 09:22:09;;;;;;;6.68;1.45;;;;;;;19.33;44.82;101950.88;5092828;28;20035;-77
2021/10/15 09:24:47;;;;;;;11.90;2.15;;;;;;;19.76;44.11;101956.06;5091202;28;20035;-76
2021/10/15 09:27:32;;;;;;;9.00;1.67;;;;;;;19.95;43.35;101965.66;5096569;28;20055;-75
2021/10/15 09:30:08;;;;;;;16.75;2.20;;;;;;;19.45;46.85;101963.03;5095780;28;20024;-75
2021/10/15 09:32:38;;;;;;;11.85;2.20;;;;;;;19.32;46.34;101971.63;5096331;28;20043;-75
2021/10/15 09:35:05;;;;;;;8.40;1.88;;;;;;;19.47;45.54;101960.16;5096454;28;20107;-75
2021/10/15 09:37:36;;;;;;;17.35;2.55;;;;;;;19.90;43.43;101969.72;5096282;28;20039;-75
2021/10/15 09:40:20;;;;;;;10.05;1.52;;;;;;;19.53;42.69;101971.09;5096360;28;20047;-76
2021/10/15 09:42:51;;;;;;;9.80;1.73;;;;;;;19.23;45.01;101969.97;5095680;28;20085;-75
2021/10/15 09:45:19;;;;;;;12.07;2.10;;;;;;;19.73;45.84;101977.00;5096270;28;20111;-76
2021/10/15 09:47:50;;;;;;;11.00;1.83;;;;;;;19.85;43.03;101973.94;5095363;28;20027;-77
2021/10/15 09:50:18;;;;;;;11.85;2.00;;;;;;;20.26;43.49;101974.66;5096025;28;20108;-76
2021/10/15 09:52:51;;;;;;;8.70;1.58;;;;;;;19.80;43.10;101977.16;5077118;28;20359;-76
2021/10/15 09:55:18;;;;;;;11.20;2.20;;;;;;;18.93;44.32;101983.09;5096202;28;20047;-76
2021/10/15 09:57:46;;;;;;;9.45;2.03;;;;;;;18.88;46.33;101998.09;5095349;28;20523;-76
2021/10/15 10:00:13;;;;;;;13.45;2.30;;;;;;;17.52;48.40;101993.34;5095547;28;20371;-75
2021/10/15 10:02:39;;;;;;;13.13;2.50;;;;;;;15.85;52.21;102002.44;5094793;28;20138;-79
2021/10/15 10:05:11;;;;;;;12.85;1.98;;;;;;;14.68;57.30;102005.13;5095822;28;20475;-75
2021/10/15 10:07:37;;;;;;;15.85;2.40;;;;;;;13.86;61.80;102009.53;5095636;28;20031;-76
2021/10/15 10:10:04;;;;;;;17.95;2.28;;;;;;;14.71;60.54;102002.16;5095449;28;20032;-75
2021/10/15 10:12:33;;;;;;;10.73;1.80;;;;;;;16.46;54.50;102007.41;5077180;28;20023;-75
2021/10/15 10:14:58;;;;;;;14.45;2.33;;;;;;;17.77;51.13;102003.28;5094674;28;20316;-76
2021/10/15 10:17:26;;;;;;;9.25;2.00;;;;;;;18.87;47.21;102007.16;5095283;28;20032;-75
2021/10/15 10:19:57;;;;;;;11.40;1.58;;;;;;;19.23;43.76;102009.56;5094585;28;20380;-76
2021/10/15 10:22:24;;;;;;;7.88;1.55;;;;;;;18.88;44.61;102016.94;5095825;28;20058;-79
2021/10/15 10:24:54;;;;;;;11.20;1.63;;;;;;;17.80;49.01;102016.44;5094904;28;20024;-76
2021/10/15 10:27:28;;;;;;;8.38;1.95;;;;;;;16.68;52.25;102019.59;5095575;28;20044;-77
2021/10/15 10:29:54;;;;;;;10.90;2.15;;;;;;;15.98;54.77;102025.44;5076904;28;20111;-77
2021/10/15 10:32:23;;;;;;;13.27;2.53;;;;;;;15.16;57.24;102016.88;5095053;28;20040;-80
2021/10/15 10:34:48;;;;;;;12.23;2.80;;;;;;;14.52;59.39;102023.50;5094629;28;20074;-77
2021/10/15 10:37:16;;;;;;;9.25;1.73;;;;;;;13.86;61.37;102030.94;5077108;28;20028;-76
2021/10/15 10:39:41;;;;;;;14.45;2.30;;;;;;;13.50;63.94;102025.09;5076907;28;20039;-79
2021/10/15 10:42:18;;;;;;;14.73;2.60;;;;;;;13.26;63.35;102027.97;5095071;28;20028;-75
2021/10/15 10:44:50;;;;;;;8.02;1.70;;;;;;;13.16;62.67;102035.03;5094466;28;20551;-78
2021/10/15 10:47:15;;;;;;;;;;;;;;;13.12;62.60;102038.94;5095537;28;20103;-76
2021/10/15 10:50:06;;;;;;;11.27;2.17;;;;;;;13.11;61.48;102037.25;5094944;28;19954;-77
2021/10/15 10:52:33;;;;;;;11.95;2.22;;;;;;;13.10;63.71;102035.56;5094855;28;20020;-77
2021/10/15 10:54:59;;;;;;;13.55;2.30;;;;;;;13.10;64.67;102038.22;5094584;28;20425;-76
2021/10/15 10:57:30;;;;;;;13.70;2.65;;;;;;;13.33;61.90;102037.16;5094864;28;20032;-77
2021/10/15 11:00:22;;;;;;;10.68;2.00;;;;;;;13.71;61.35;102046.47;5094153;28;20027;-77
2021/10/15 11:02:56;;;;;;;14.02;2.90;;;;;;;14.06;61.59;102052.47;5083038;28;20090;-76
2021/10/15 11:05:41;;;;;;;22.35;2.67;;;;;;;14.14;62.18;102059.81;5076456;28;20050;-76
2021/10/15 11:08:36;;;;;;;11.82;2.83;;;;;;;13.95;61.51;102066.78;5093979;28;20111;-75
2021/10/15 11:11:19;;;;;;;12.15;2.03;;;;;;;13.79;60.54;102064.53;5071765;28;20131;-75
2021/10/15 11:13:45;;;;;;;13.02;2.17;;;;;;;13.60;62.29;102081.31;5094399;28;20031;-76
2021/10/15 11:16:25;;;;;;;17.27;2.30;;;;;;;13.45;60.92;102079.91;5094340;28;20024;-76
2021/10/15 11:18:51;;;;;;;10.25;2.25;;;;;;;13.48;61.30;102075.19;5093745;28;20460;-76
2021/10/15 11:21:19;;;;;;;15.68;2.78;;;;;;;13.66;61.43;102091.50;5094424;28;20043;-77
2021/10/15 11:23:45;;;;;;;13.23;2.25;;;;;;;13.73;61.11;102082.00;5094310;28;20028;-77
2021/10/15 11:26:10;;;;;;;18.02;3.10;;;;;;;13.52;59.15;102092.63;5093631;28;20024;-78
2021/10/15 11:28:36;;;;;;;17.67;2.90;;;;;;;13.28;61.58;102095.50;5094202;28;20020;-77
2021/10/15 11:31:01;;;;;;;16.27;3.00;;;;;;;13.18;63.01;102100.75;5093419;28;20456;-76
2021/10/15 11:33:27;;;;;;;20.27;3.03;;;;;;;13.49;62.47;102100.91;5093657;28;20505;-74
2021/10/15 11:35:54;;;;;;;12.65;2.65;;;;;;;13.96;60.34;102094.38;5093531;28;20074;-76